Time;durP1;ratioP1;P1;durP2;ratioP2;P2;SDS_P1;SDS_P2;PMS_P1;PMS_P2;Temp;Humidity;BMP_temperature;BMP_pressure;BME280_temperature;BME280_humidity;BME280_pressure;Samples;Min_cycle;Max_cycle;Signal;HPM_P1;HPM_P2
2021/08/26 00:07:50;;;;;;;8.55;5.25;;;;;;;;;;5052879;28;20082;-57
2021/08/26 00:10:17;;;;;;;6.18;4.68;;;;;;;;;;5053039;28;20029;-58
2021/08/26 00:12:43;;;;;;;7.15;5.03;;;;;;;;;;5053372;28;20411;-57
2021/08/26 00:15:09;;;;;;;8.88;5.40;;;;;;;;;;5053484;28;20025;-58
2021/08/26 00:17:35;;;;;;;6.18;4.28;;;;;;;;;;5053295;28;20033;-58
2021/08/26 00:20:02;;;;;;;7.20;5.40;;;;;;;;;;5052902;28;20379;-58
2021/08/26 00:22:28;;;;;;;8.48;5.05;;;;;;;;;;5053006;28;20024;-58
2021/08/26 00:24:54;;;;;;;7.55;4.90;;;;;;;;;;5056399;28;20021;-58
2021/08/26 00:27:23;;;;;;;8.55;5.07;;;;;;;;;;5056659;28;20033;-58
2021/08/26 00:29:49;;;;;;;6.97;5.90;;;;;;;;;;5056582;28;20089;-57
2021/08/26 00:32:15;;;;;;;9.35;6.15;;;;;;;;;;5056485;28;20067;-57
2021/08/26 00:34:41;;;;;;;7.72;5.43;;;;;;;;;;5056372;28;20032;-58
2021/08/26 00:37:07;;;;;;;10.27;5.43;;;;;;;;;;5056902;28;20463;-58
2021/08/26 00:39:33;;;;;;;7.63;5.95;;;;;;;;;;5056546;28;20037;-58
2021/08/26 00:41:59;;;;;;;9.15;6.18;;;;;;;;;;5056724;28;20078;-58
2021/08/26 00:44:25;;;;;;;7.25;5.85;;;;;;;;;;5055925;28;20032;-58
2021/08/26 00:46:51;;;;;;;9.65;5.90;;;;;;;;;;5055896;28;20092;-58
2021/08/26 00:49:18;;;;;;;6.82;5.43;;;;;;;;;;5056067;28;20075;-58
2021/08/26 00:51:44;;;;;;;7.35;4.93;;;;;;;;;;5056134;28;20111;-58
2021/08/26 00:54:10;;;;;;;9.32;5.28;;;;;;;;;;5056262;28;20025;-58
2021/08/26 00:56:36;;;;;;;11.10;5.93;;;;;;;;;;5055935;28;20029;-58
2021/08/26 00:59:03;;;;;;;6.60;4.53;;;;;;;;;;5054583;28;20068;-58
2021/08/26 01:01:35;;;;;;;6.15;4.10;;;;;;;;;;5055844;28;20060;-58
2021/08/26 01:04:04;;;;;;;7.75;6.00;;;;;;;;;;5056066;28;20086;-58
2021/08/26 01:06:35;;;;;;;6.47;5.18;;;;;;;;;;5055922;28;20051;-58
2021/08/26 01:09:03;;;;;;;5.45;3.97;;;;;;;;;;5056290;28;20025;-58
2021/08/26 01:11:33;;;;;;;6.53;4.57;;;;;;;;;;5055698;28;20075;-58
2021/08/26 01:14:00;;;;;;;7.70;4.77;;;;;;;;;;5055878;28;20031;-58
2021/08/26 01:16:29;;;;;;;9.27;5.22;;;;;;;;;;5055619;28;20025;-58
2021/08/26 01:18:58;;;;;;;7.45;4.90;;;;;;;;;;5055193;28;20025;-58
2021/08/26 01:21:26;;;;;;;7.38;4.72;;;;;;;;;;5055421;28;20037;-58
2021/08/26 01:23:55;;;;;;;7.10;5.03;;;;;;;;;;5055965;28;20047;-58
2021/08/26 01:26:39;;;;;;;7.07;4.72;;;;;;;;;;5055331;28;20035;-58
2021/08/26 01:29:06;;;;;;;8.70;5.63;;;;;;;;;;5054843;28;20453;-59
2021/08/26 01:31:32;;;;;;;5.45;4.40;;;;;;;;;;5055837;28;20438;-58
2021/08/26 01:33:59;;;;;;;9.00;4.13;;;;;;;;;;5055181;28;20078;-58
2021/08/26 01:36:25;;;;;;;7.25;4.80;;;;;;;;;;5055249;28;20040;-58
2021/08/26 01:38:59;;;;;;;6.60;4.47;;;;;;;;;;5055203;28;20455;-58
2021/08/26 01:41:35;;;;;;;7.82;5.20;;;;;;;;;;5055005;28;20482;-58
2021/08/26 01:44:01;;;;;;;7.72;4.45;;;;;;;;;;5055478;28;20025;-58
2021/08/26 01:46:27;;;;;;;7.43;4.47;;;;;;;;;;5054983;28;20032;-58
2021/08/26 01:48:53;;;;;;;8.38;5.03;;;;;;;;;;5055430;28;20098;-58
2021/08/26 01:51:19;;;;;;;7.13;4.85;;;;;;;;;;5055235;28;20075;-58
2021/08/26 01:53:45;;;;;;;9.52;5.03;;;;;;;;;;5055113;28;20471;-58
2021/08/26 01:56:11;;;;;;;9.02;5.57;;;;;;;;;;5054830;28;20067;-58
2021/08/26 01:58:37;;;;;;;7.97;5.22;;;;;;;;;;5053443;28;20048;-58
2021/08/26 02:01:03;;;;;;;9.02;5.28;;;;;;;;;;5054708;28;20041;-58
2021/08/26 02:03:29;;;;;;;6.82;4.70;;;;;;;;;;5054707;28;20031;-58
2021/08/26 02:05:55;;;;;;;8.10;4.78;;;;;;;;;;5054004;28;20088;-58
2021/08/26 02:08:21;;;;;;;6.63;4.68;;;;;;;;;;5054643;28;20344;-58
2021/08/26 02:10:47;;;;;;;6.95;4.85;;;;;;;;;;5055287;28;20095;-58
2021/08/26 02:13:13;;;;;;;6.60;4.90;;;;;;;;;;5053610;28;20029;-58
2021/08/26 02:15:39;;;;;;;6.75;4.53;;;;;;;;;;5054401;28;20025;-58
2021/08/26 02:18:05;;;;;;;6.32;4.55;;;;;;;;;;5054093;28;20113;-58
2021/08/26 02:20:31;;;;;;;7.65;5.40;;;;;;;;;;5053132;28;20382;-58
2021/08/26 02:22:57;;;;;;;8.70;5.10;;;;;;;;;;5054154;28;20025;-58
2021/08/26 02:25:25;;;;;;;8.63;5.13;;;;;;;;;;5053966;28;20444;-58
2021/08/26 02:27:51;;;;;;;8.15;4.65;;;;;;;;;;5054453;28;20398;-58
2021/08/26 02:30:17;;;;;;;5.82;4.55;;;;;;;;;;5054507;28;20029;-58
2021/08/26 02:32:43;;;;;;;6.90;5.20;;;;;;;;;;5054489;28;20528;-58
2021/08/26 02:35:10;;;;;;;7.60;5.72;;;;;;;;;;5054144;28;20063;-58
2021/08/26 02:37:36;;;;;;;7.57;5.00;;;;;;;;;;5054055;28;20375;-58
2021/08/26 02:40:02;;;;;;;7.00;5.72;;;;;;;;;;5053919;28;20029;-58
2021/08/26 02:42:29;;;;;;;6.38;4.28;;;;;;;;;;5054651;28;20029;-58
2021/08/26 02:44:56;;;;;;;7.13;5.10;;;;;;;;;;5053894;28;20037;-58
2021/08/26 02:47:22;;;;;;;5.65;4.38;;;;;;;;;;5053720;28;20370;-58
2021/08/26 02:49:48;;;;;;;7.05;5.05;;;;;;;;;;5054197;28;20123;-58
2021/08/26 02:52:14;;;;;;;8.65;4.80;;;;;;;;;;5053933;28;20032;-58
2021/08/26 02:54:42;;;;;;;7.63;5.47;;;;;;;;;;5054109;28;20331;-58
2021/08/26 02:57:10;;;;;;;9.00;5.43;;;;;;;;;;5054183;28;20108;-58
2021/08/26 02:59:36;;;;;;;6.22;5.25;;;;;;;;;;5053486;28;20029;-58
2021/08/26 03:02:02;;;;;;;7.55;4.63;;;;;;;;;;5053939;28;20052;-58
2021/08/26 03:04:28;;;;;;;8.57;5.68;;;;;;;;;;5053859;28;20025;-58
2021/08/26 03:06:54;;;;;;;11.55;5.15;;;;;;;;;;5054135;28;20083;-58
2021/08/26 03:09:21;;;;;;;7.07;4.80;;;;;;;;;;5054168;28;20021;-58
2021/08/26 03:11:47;;;;;;;7.13;5.13;;;;;;;;;;5053853;28;20032;-58
2021/08/26 03:14:13;;;;;;;6.55;4.30;;;;;;;;;;5053783;28;20359;-58
2021/08/26 03:16:39;;;;;;;5.80;4.43;;;;;;;;;;5053581;28;20029;-58
2021/08/26 03:19:05;;;;;;;8.38;5.20;;;;;;;;;;5053562;28;20420;-58
2021/08/26 03:21:32;;;;;;;7.78;5.55;;;;;;;;;;5053756;28;20033;-58
2021/08/26 03:23:58;;;;;;;8.32;5.45;;;;;;;;;;5053751;28;20032;-58
2021/08/26 03:26:24;;;;;;;6.68;4.70;;;;;;;;;;5052264;28;20025;-58
2021/08/26 03:28:50;;;;;;;6.93;5.60;;;;;;;;;;5051625;28;20482;-58
2021/08/26 03:31:16;;;;;;;7.30;5.07;;;;;;;;;;5053745;28;20033;-58
2021/08/26 03:33:42;;;;;;;7.95;5.75;;;;;;;;;;5054032;28;20028;-58
2021/08/26 03:36:08;;;;;;;8.25;4.53;;;;;;;;;;5052103;28;20056;-58
2021/08/26 03:38:34;;;;;;;7.70;4.93;;;;;;;;;;5053429;28;20067;-58
2021/08/26 03:41:00;;;;;;;8.02;5.65;;;;;;;;;;5052055;28;20467;-58
2021/08/26 03:43:26;;;;;;;6.10;5.30;;;;;;;;;;5052700;28;20025;-58
2021/08/26 03:45:52;;;;;;;8.20;5.82;;;;;;;;;;5053330;28;20071;-58
2021/08/26 03:48:18;;;;;;;10.27;5.88;;;;;;;;;;5053498;28;20026;-58
2021/08/26 03:50:44;;;;;;;7.53;5.95;;;;;;;;;;5053863;28;20055;-58
2021/08/26 03:53:10;;;;;;;7.68;5.38;;;;;;;;;;5054064;28;20025;-58
2021/08/26 03:55:36;;;;;;;8.10;6.25;;;;;;;;;;5053257;28;20108;-58
2021/08/26 03:58:02;;;;;;;12.77;5.68;;;;;;;;;;5054568;28;20052;-58
2021/08/26 04:00:28;;;;;;;8.02;5.45;;;;;;;;;;5057599;28;20082;-58
2021/08/26 04:02:54;;;;;;;8.70;5.30;;;;;;;;;;5057597;28;20112;-58
2021/08/26 04:05:20;;;;;;;12.85;5.60;;;;;;;;;;5056734;28;20118;-58
2021/08/26 04:07:46;;;;;;;5.65;4.85;;;;;;;;;;5055795;28;20031;-58
2021/08/26 04:10:13;;;;;;;9.00;4.97;;;;;;;;;;5056388;28;20436;-58
2021/08/26 04:12:39;;;;;;;6.18;4.63;;;;;;;;;;5057429;28;20029;-58
2021/08/26 04:15:05;;;;;;;7.13;5.13;;;;;;;;;;5056771;28;20036;-58
2021/08/26 04:17:34;;;;;;;6.85;5.32;;;;;;;;;;5055434;28;20025;-58
2021/08/26 04:20:00;;;;;;;7.55;5.53;;;;;;;;;;5056581;28;20021;-58
2021/08/26 04:22:25;;;;;;;8.10;5.30;;;;;;;;;;5057224;28;20025;-58
2021/08/26 04:24:51;;;;;;;9.05;5.60;;;;;;;;;;5056536;28;20031;-58
2021/08/26 04:27:17;;;;;;;9.88;5.85;;;;;;;;;;5056172;28;20420;-58
2021/08/26 04:29:43;;;;;;;8.85;6.38;;;;;;;;;;5056625;28;20029;-58
2021/08/26 04:32:09;;;;;;;9.90;6.00;;;;;;;;;;5057128;28;20343;-58
2021/08/26 04:34:35;;;;;;;12.65;6.25;;;;;;;;;;5056045;28;20061;-58
2021/08/26 04:37:01;;;;;;;8.75;6.10;;;;;;;;;;5056107;28;20173;-58
2021/08/26 04:39:27;;;;;;;8.88;5.65;;;;;;;;;;5057076;28;20363;-58
2021/08/26 04:41:53;;;;;;;7.90;6.35;;;;;;;;;;5056627;28;20082;-58
2021/08/26 04:44:19;;;;;;;8.45;5.57;;;;;;;;;;5056266;28;20370;-58
2021/08/26 04:46:45;;;;;;;9.02;5.78;;;;;;;;;;5056186;28;20115;-58
2021/08/26 04:49:11;;;;;;;7.95;5.68;;;;;;;;;;5056581;28;20113;-58
2021/08/26 04:51:37;;;;;;;8.55;6.38;;;;;;;;;;5056282;28;20065;-58
2021/08/26 04:54:03;;;;;;;6.90;5.65;;;;;;;;;;5056104;28;20032;-58
2021/08/26 04:56:29;;;;;;;10.20;6.53;;;;;;;;;;5056260;28;20048;-58
2021/08/26 04:58:58;;;;;;;7.88;5.10;;;;;;;;;;5056065;28;20021;-58
2021/08/26 05:01:24;;;;;;;9.50;5.57;;;;;;;;;;5055502;28;20029;-58
2021/08/26 05:03:50;;;;;;;8.80;5.78;;;;;;;;;;5056213;28;20055;-58
2021/08/26 05:06:16;;;;;;;8.25;5.50;;;;;;;;;;5054474;28;20025;-58
2021/08/26 05:08:42;;;;;;;6.18;5.00;;;;;;;;;;5055371;28;20109;-58
2021/08/26 05:11:08;;;;;;;7.78;5.97;;;;;;;;;;5055767;28;20033;-58
2021/08/26 05:13:34;;;;;;;6.57;5.40;;;;;;;;;;5055552;28;20052;-58
2021/08/26 05:16:00;;;;;;;8.40;5.60;;;;;;;;;;5055668;28;20032;-58
2021/08/26 05:18:26;;;;;;;7.93;5.72;;;;;;;;;;5055620;28;20474;-58
2021/08/26 05:20:52;;;;;;;8.60;5.82;;;;;;;;;;5055414;28;20119;-58
2021/08/26 05:23:18;;;;;;;10.98;6.60;;;;;;;;;;5055907;28;20032;-58
2021/08/26 05:25:44;;;;;;;6.10;5.30;;;;;;;;;;5055063;28;20025;-58
2021/08/26 05:28:13;;;;;;;8.32;5.50;;;;;;;;;;5055604;28;20051;-58
2021/08/26 05:30:39;;;;;;;7.97;5.85;;;;;;;;;;5055514;28;20029;-58
2021/08/26 05:33:05;;;;;;;7.03;5.60;;;;;;;;;;5055903;28;20029;-58
2021/08/26 05:35:31;;;;;;;7.60;5.60;;;;;;;;;;5055247;28;20059;-58
2021/08/26 05:37:57;;;;;;;7.78;5.25;;;;;;;;;;5055494;28;20055;-58
2021/08/26 05:40:23;;;;;;;8.05;6.15;;;;;;;;;;5055064;28;20041;-58
2021/08/26 05:42:49;;;;;;;5.68;4.72;;;;;;;;;;5055521;28;20029;-58
2021/08/26 05:45:15;;;;;;;8.07;5.85;;;;;;;;;;5055018;28;20478;-58
2021/08/26 05:47:41;;;;;;;8.52;6.32;;;;;;;;;;5055532;28;20060;-58
2021/08/26 05:50:07;;;;;;;10.30;6.65;;;;;;;;;;5055218;28;20029;-58
2021/08/26 05:52:33;;;;;;;8.25;5.63;;;;;;;;;;5055455;28;20032;-58
2021/08/26 05:54:59;;;;;;;8.55;5.85;;;;;;;;;;5054931;28;20054;-58
2021/08/26 05:57:25;;;;;;;7.90;5.57;;;;;;;;;;5054841;28;20104;-58
2021/08/26 05:59:55;;;;;;;7.03;5.75;;;;;;;;;;5054497;28;20044;-58
2021/08/26 06:02:24;;;;;;;8.60;6.50;;;;;;;;;;5055288;28;20040;-58
2021/08/26 06:04:53;;;;;;;8.30;5.68;;;;;;;;;;5054731;28;20025;-58
2021/08/26 06:07:21;;;;;;;5.70;5.10;;;;;;;;;;5054604;28;20025;-58
2021/08/26 06:09:48;;;;;;;9.00;5.95;;;;;;;;;;5054578;28;20374;-58
2021/08/26 06:12:14;;;;;;;8.32;5.88;;;;;;;;;;5055153;28;20028;-58
2021/08/26 06:14:43;;;;;;;7.70;5.22;;;;;;;;;;5054544;28;20199;-58
2021/08/26 06:17:09;;;;;;;8.70;6.70;;;;;;;;;;5054308;28;20025;-58
2021/08/26 06:19:35;;;;;;;12.52;7.65;;;;;;;;;;5054474;28;20021;-58
2021/08/26 06:22:01;;;;;;;8.88;7.20;;;;;;;;;;5054093;28;20043;-58
2021/08/26 06:24:27;;;;;;;10.02;5.15;;;;;;;;;;5054398;28;20029;-58
2021/08/26 06:26:53;;;;;;;8.88;6.90;;;;;;;;;;5053930;28;20029;-58
2021/08/26 06:29:22;;;;;;;11.13;6.82;;;;;;;;;;5054620;28;20098;-58
2021/08/26 06:31:50;;;;;;;9.55;7.32;;;;;;;;;;5054830;28;20033;-58
2021/08/26 06:34:16;;;;;;;14.18;8.10;;;;;;;;;;5054164;28;20363;-58
2021/08/26 06:36:42;;;;;;;8.77;6.90;;;;;;;;;;5054080;28;20021;-58
2021/08/26 06:39:08;;;;;;;10.30;7.10;;;;;;;;;;5036350;28;20021;-58
2021/08/26 06:41:34;;;;;;;8.65;6.85;;;;;;;;;;5054287;28;20163;-58
2021/08/26 06:44:00;;;;;;;8.68;6.82;;;;;;;;;;5052716;28;20171;-58
2021/08/26 06:46:26;;;;;;;7.00;6.30;;;;;;;;;;5054252;28;20417;-58
2021/08/26 06:48:54;;;;;;;8.30;6.65;;;;;;;;;;5053988;28;20104;-58
2021/08/26 06:51:21;;;;;;;11.27;7.65;;;;;;;;;;5053984;28;20035;-58
2021/08/26 06:53:47;;;;;;;12.35;6.88;;;;;;;;;;5053869;28;20072;-58
2021/08/26 06:56:13;;;;;;;7.70;6.50;;;;;;;;;;5054726;28;20111;-60
2021/08/26 06:58:39;;;;;;;10.43;8.20;;;;;;;;;;5053587;28;20451;-58
2021/08/26 07:01:14;;;;;;;9.15;6.93;;;;;;;;;;5054015;28;20032;-59
2021/08/26 07:03:40;;;;;;;11.70;7.60;;;;;;;;;;5053741;28;20051;-58
2021/08/26 07:06:06;;;;;;;11.40;7.78;;;;;;;;;;5053946;28;20031;-58
2021/08/26 07:08:32;;;;;;;10.98;7.57;;;;;;;;;;5053810;28;20025;-59
2021/08/26 07:10:58;;;;;;;9.10;7.82;;;;;;;;;;5052466;28;20039;-58
2021/08/26 07:13:24;;;;;;;10.65;8.30;;;;;;;;;;5054190;28;20024;-58
2021/08/26 07:15:51;;;;;;;9.90;7.68;;;;;;;;;;5053744;28;20068;-58
2021/08/26 07:18:18;;;;;;;8.35;7.05;;;;;;;;;;5053575;28;20491;-58
2021/08/26 07:20:44;;;;;;;9.90;7.47;;;;;;;;;;5053580;28;20115;-58
2021/08/26 07:23:10;;;;;;;9.45;8.15;;;;;;;;;;5053964;28;20025;-58
2021/08/26 07:25:36;;;;;;;16.38;8.88;;;;;;;;;;5053387;28;20348;-58
2021/08/26 07:28:03;;;;;;;12.02;7.57;;;;;;;;;;5053106;28;20056;-58
2021/08/26 07:30:30;;;;;;;9.88;7.38;;;;;;;;;;5053507;28;20033;-58
2021/08/26 07:32:57;;;;;;;9.02;6.88;;;;;;;;;;5056045;28;20021;-58
2021/08/26 07:35:23;;;;;;;10.25;8.35;;;;;;;;;;5058109;28;20107;-58
2021/08/26 07:37:49;;;;;;;11.15;8.30;;;;;;;;;;5056276;28;20238;-58
2021/08/26 07:40:15;;;;;;;10.68;8.77;;;;;;;;;;5057479;28;20044;-58
2021/08/26 07:42:41;;;;;;;10.80;8.48;;;;;;;;;;5056165;28;20437;-58
2021/08/26 07:45:07;;;;;;;9.95;8.73;;;;;;;;;;5057405;28;20041;-58
2021/08/26 07:47:33;;;;;;;13.13;9.55;;;;;;;;;;5057394;28;20029;-58
2021/08/26 07:49:59;;;;;;;11.85;8.65;;;;;;;;;;5057351;28;20029;-58
2021/08/26 07:52:26;;;;;;;12.05;8.63;;;;;;;;;;5057385;28;20033;-58
2021/08/26 07:54:52;;;;;;;10.35;8.25;;;;;;;;;;5057115;28;20029;-58
2021/08/26 07:57:18;;;;;;;10.88;8.63;;;;;;;;;;5056000;28;20033;-58
2021/08/26 07:59:44;;;;;;;11.48;7.40;;;;;;;;;;5057508;28;20025;-58
2021/08/26 08:02:10;;;;;;;8.73;7.80;;;;;;;;;;5057450;28;20039;-58
2021/08/26 08:04:37;;;;;;;15.23;8.43;;;;;;;;;;5056645;28;20178;-58
2021/08/26 08:07:03;;;;;;;9.80;7.95;;;;;;;;;;5057362;28;20032;-58
2021/08/26 08:09:35;;;;;;;9.70;8.70;;;;;;;;;;5056982;28;20036;-58
2021/08/26 08:12:01;;;;;;;11.15;6.57;;;;;;;;;;5057478;28;20119;-58
2021/08/26 08:14:29;;;;;;;8.30;7.50;;;;;;;;;;5056118;28;20099;-58
2021/08/26 08:16:55;;;;;;;11.45;6.95;;;;;;;;;;5056766;28;20371;-58
2021/08/26 08:19:22;;;;;;;8.82;7.65;;;;;;;;;;5056861;28;20104;-58
2021/08/26 08:21:48;;;;;;;10.15;7.57;;;;;;;;;;5056995;28;20033;-58
2021/08/26 08:24:14;;;;;;;10.60;8.32;;;;;;;;;;5056776;28;20033;-58
2021/08/26 08:26:40;;;;;;;9.40;7.25;;;;;;;;;;5056545;28;20375;-58
2021/08/26 08:29:06;;;;;;;8.93;7.22;;;;;;;;;;5056305;28;20127;-58
2021/08/26 08:31:32;;;;;;;12.07;7.75;;;;;;;;;;5057117;28;20060;-58
2021/08/26 08:34:00;;;;;;;11.82;8.27;;;;;;;;;;5056532;28;20058;-58
2021/08/26 08:36:26;;;;;;;10.38;8.35;;;;;;;;;;5055245;28;20025;-58
2021/08/26 08:38:52;;;;;;;11.55;9.73;;;;;;;;;;5056482;28;20474;-59
2021/08/26 08:41:19;;;;;;;12.60;9.25;;;;;;;;;;5056326;28;20040;-59
2021/08/26 08:43:46;;;;;;;12.93;9.90;;;;;;;;;;5055919;28;20520;-59
2021/08/26 08:46:12;;;;;;;11.02;9.43;;;;;;;;;;5054980;28;20036;-59
2021/08/26 08:48:42;;;;;;;11.02;8.95;;;;;;;;;;5056176;28;20123;-59
2021/08/26 08:51:09;;;;;;;12.25;10.73;;;;;;;;;;5056143;28;20035;-60
2021/08/26 08:53:35;;;;;;;16.15;10.55;;;;;;;;;;5055503;28;20045;-59
2021/08/26 08:56:04;;;;;;;11.52;9.63;;;;;;;;;;5055390;28;20025;-59
2021/08/26 08:58:34;;;;;;;13.23;10.35;;;;;;;;;;5055788;28;20104;-59
2021/08/26 09:01:03;;;;;;;14.38;12.15;;;;;;;;;;5055758;28;20025;-57
2021/08/26 09:03:29;;;;;;;12.60;11.35;;;;;;;;;;5054523;28;20037;-58
2021/08/26 09:05:56;;;;;;;15.63;12.23;;;;;;;;;;5055657;28;20024;-58
2021/08/26 09:08:23;;;;;;;13.07;10.88;;;;;;;;;;5056120;28;20344;-58
2021/08/26 09:10:53;;;;;;;14.13;11.30;;;;;;;;;;5055158;28;20079;-58
2021/08/26 09:13:29;;;;;;;12.50;11.13;;;;;;;;;;5055730;28;20116;-59
2021/08/26 09:15:59;;;;;;;16.15;12.52;;;;;;;;;;5055691;28;20500;-58
2021/08/26 09:18:25;;;;;;;15.75;11.38;;;;;;;;;;5056807;28;20359;-58
2021/08/26 09:20:55;;;;;;;15.57;12.23;;;;;;;;;;5055607;28;20065;-58
2021/08/26 09:23:22;;;;;;;14.77;12.98;;;;;;;;;;5054513;28;20540;-58
2021/08/26 09:25:49;;;;;;;15.85;13.55;;;;;;;;;;5055144;28;20033;-58
2021/08/26 09:28:31;;;;;;;15.52;13.93;;;;;;;;;;5055136;28;20053;-59
2021/08/26 09:31:17;;;;;;;14.68;13.15;;;;;;;;;;5055093;28;20412;-58
2021/08/26 09:34:02;;;;;;;16.05;14.20;;;;;;;;;;5054960;28;20032;-58
2021/08/26 09:36:30;;;;;;;15.75;14.13;;;;;;;;;;5054121;28;20056;-58
2021/08/26 09:39:05;;;;;;;14.70;12.77;;;;;;;;;;5055586;28;20021;-58
2021/08/26 09:41:42;;;;;;;17.38;14.15;;;;;;;;;;5055744;28;20075;-58
2021/08/26 09:44:10;;;;;;;17.77;13.15;;;;;;;;;;5054920;28;20057;-58
2021/08/26 09:46:36;;;;;;;15.18;13.57;;;;;;;;;;5055509;28;20455;-58
2021/08/26 09:49:05;;;;;;;15.10;13.50;;;;;;;;;;5055907;28;20053;-58
2021/08/26 09:51:32;;;;;;;14.02;11.52;;;;;;;;;;5054446;28;20421;-58
2021/08/26 09:53:58;;;;;;;14.45;12.25;;;;;;;;;;5055088;28;20021;-59
2021/08/26 09:56:24;;;;;;;16.70;12.32;;;;;;;;;;5055047;28;20057;-59
2021/08/26 09:58:54;;;;;;;15.25;11.95;;;;;;;;;;5055077;28;20029;-59
2021/08/26 10:01:21;;;;;;;11.60;10.43;;;;;;;;;;5054756;28;20124;-58
2021/08/26 10:03:49;;;;;;;10.95;9.48;;;;;;;;;;5054800;28;20032;-58
2021/08/26 10:06:16;;;;;;;12.55;9.55;;;;;;;;;;5054729;28;20025;-59
2021/08/26 10:08:43;;;;;;;9.02;7.93;;;;;;;;;;5054675;28;20025;-59
2021/08/26 10:11:10;;;;;;;8.98;7.40;;;;;;;;;;5054635;28;20021;-59
2021/08/26 10:13:37;;;;;;;8.05;7.30;;;;;;;;;;5055458;28;20408;-58
2021/08/26 10:16:03;;;;;;;8.48;7.53;;;;;;;;;;5054575;28;20031;-58
2021/08/26 10:18:30;;;;;;;5.95;5.35;;;;;;;;;;5054370;28;20100;-58
2021/08/26 10:21:01;;;;;;;6.20;5.55;;;;;;;;;;5053654;28;20037;-58
2021/08/26 10:23:27;;;;;;;7.55;5.68;;;;;;;;;;5054797;28;20062;-58
2021/08/26 10:25:55;;;;;;;5.95;5.35;;;;;;;;;;5054405;28;20056;-58
2021/08/26 10:28:22;;;;;;;5.60;4.75;;;;;;;;;;5054189;28;20143;-58
2021/08/26 10:30:48;;;;;;;5.72;4.47;;;;;;;;;;5053878;28;20112;-58
2021/08/26 10:33:24;;;;;;;5.95;3.33;;;;;;;;;;5054306;28;20086;-58
2021/08/26 10:35:50;;;;;;;4.22;3.33;;;;;;;;;;5054271;28;20032;-58
2021/08/26 10:38:20;;;;;;;3.88;2.90;;;;;;;;;;5054204;28;20021;-58
2021/08/26 10:40:46;;;;;;;5.23;4.07;;;;;;;;;;5054081;28;20115;-58
2021/08/26 10:43:35;;;;;;;6.13;4.30;;;;;;;;;;5054173;28;20247;-58
2021/08/26 10:46:02;;;;;;;4.90;4.00;;;;;;;;;;5054613;28;20021;-58
2021/08/26 10:48:28;;;;;;;4.75;3.92;;;;;;;;;;5053738;28;20017;-58
2021/08/26 10:51:05;;;;;;;4.55;3.97;;;;;;;;;;5053930;28;20101;-58
2021/08/26 10:53:32;;;;;;;3.45;2.85;;;;;;;;;;5054589;28;20033;-58
2021/08/26 10:56:17;;;;;;;5.93;4.18;;;;;;;;;;5054621;28;20108;-58
2021/08/26 10:58:43;;;;;;;4.53;3.58;;;;;;;;;;5053345;28;20040;-58
2021/08/26 11:01:15;;;;;;;5.78;4.07;;;;;;;;;;5053788;28;20469;-58
2021/08/26 11:03:47;;;;;;;6.55;4.50;;;;;;;;;;5055001;28;20459;-58
2021/08/26 11:06:19;;;;;;;5.07;3.90;;;;;;;;;;5053791;28;20033;-58
2021/08/26 11:08:47;;;;;;;5.13;4.10;;;;;;;;;;5053666;28;20037;-58
2021/08/26 11:11:25;;;;;;;5.47;4.00;;;;;;;;;;5053777;28;20036;-58
2021/08/26 11:13:52;;;;;;;5.60;4.55;;;;;;;;;;5055086;28;20459;-58
2021/08/26 11:16:24;;;;;;;7.72;5.20;;;;;;;;;;5054007;28;20083;-58
2021/08/26 11:18:58;;;;;;;5.18;3.88;;;;;;;;;;5053563;28;20501;-58
2021/08/26 11:22:08;;;;;;;7.63;5.03;;;;;;;;;;5053440;28;20033;-58
2021/08/26 11:24:34;;;;;;;4.07;3.20;;;;;;;;;;5031182;28;20033;-59
2021/08/26 11:27:04;;;;;;;4.95;4.00;;;;;;;;;;5050552;28;20367;-58
2021/08/26 11:29:38;;;;;;;4.30;3.75;;;;;;;;;;5053967;28;20041;-59
2021/08/26 11:32:14;;;;;;;5.10;3.63;;;;;;;;;;5053975;28;20052;-59
2021/08/26 11:34:57;;;;;;;4.10;3.22;;;;;;;;;;5053825;28;20058;-59
2021/08/26 11:37:25;;;;;;;6.05;3.90;;;;;;;;;;5053983;28;20033;-59
2021/08/26 11:39:53;;;;;;;6.03;4.40;;;;;;;;;;5053942;28;20032;-59
2021/08/26 11:42:29;;;;;;;6.05;4.20;;;;;;;;;;5053443;28;20037;-59
2021/08/26 11:45:07;;;;;;;5.25;4.07;;;;;;;;;;5053466;28;20112;-59
2021/08/26 11:47:34;;;;;;;6.65;4.50;;;;;;;;;;5053254;28;20032;-59
2021/08/26 11:50:09;;;;;;;6.88;5.03;;;;;;;;;;5053315;28;20463;-59
2021/08/26 11:52:35;;;;;;;6.85;5.38;;;;;;;;;;5053643;28;20033;-59
2021/08/26 11:55:03;;;;;;;10.18;5.47;;;;;;;;;;5052997;28;20021;-59
2021/08/26 11:57:29;;;;;;;7.93;4.78;;;;;;;;;;5053604;28;20024;-59
2021/08/26 11:59:55;;;;;;;7.25;5.10;;;;;;;;;;5053053;28;20045;-59
2021/08/26 12:02:23;;;;;;;6.25;4.55;;;;;;;;;;5053565;28;20040;-59
2021/08/26 12:04:57;;;;;;;6.00;4.78;;;;;;;;;;5053232;28;20106;-59
2021/08/26 12:07:23;;;;;;;7.80;5.53;;;;;;;;;;5053270;28;20205;-59
2021/08/26 12:09:50;;;;;;;7.75;4.88;;;;;;;;;;5053274;28;20468;-59
2021/08/26 12:12:16;;;;;;;7.78;4.95;;;;;;;;;;5054036;28;20033;-59
2021/08/26 12:14:43;;;;;;;6.97;5.40;;;;;;;;;;5053179;28;20025;-59
2021/08/26 12:17:10;;;;;;;8.48;5.20;;;;;;;;;;5052832;28;20032;-59
2021/08/26 12:19:36;;;;;;;7.03;5.20;;;;;;;;;;5054874;28;20411;-59
2021/08/26 12:22:02;;;;;;;8.35;5.38;;;;;;;;;;5056976;28;20371;-59
2021/08/26 12:24:28;;;;;;;9.82;5.03;;;;;;;;;;5057008;28;20370;-59
2021/08/26 12:26:54;;;;;;;6.50;4.95;;;;;;;;;;5056551;28;20025;-59
2021/08/26 12:29:20;;;;;;;11.10;5.15;;;;;;;;;;5057183;28;20391;-59
2021/08/26 12:31:47;;;;;;;6.68;5.63;;;;;;;;;;5056946;28;20037;-59
2021/08/26 12:34:13;;;;;;;9.15;5.40;;;;;;;;;;5056546;28;20029;-59
2021/08/26 12:36:41;;;;;;;6.85;4.72;;;;;;;;;;5056415;28;20082;-59
2021/08/26 12:39:36;;;;;;;8.25;4.93;;;;;;;;;;5038935;28;20029;-59
2021/08/26 12:42:07;;;;;;;8.02;5.30;;;;;;;;;;5051423;28;20183;-59
2021/08/26 12:44:33;;;;;;;5.63;4.43;;;;;;;;;;5056444;28;20480;-59
2021/08/26 12:47:02;;;;;;;7.72;4.63;;;;;;;;;;5055695;28;20033;-59
2021/08/26 12:49:28;;;;;;;5.22;3.88;;;;;;;;;;5056297;28;20079;-59
2021/08/26 12:51:55;;;;;;;8.40;4.82;;;;;;;;;;5056589;28;20029;-59
2021/08/26 12:54:22;;;;;;;7.00;4.75;;;;;;;;;;5056254;28;20033;-59
2021/08/26 12:56:52;;;;;;;9.20;4.55;;;;;;;;;;5056241;28;20029;-59
2021/08/26 12:59:19;;;;;;;6.35;5.10;;;;;;;;;;5055937;28;20029;-59
2021/08/26 13:01:49;;;;;;;5.68;4.13;;;;;;;;;;5055908;28;20040;-59
2021/08/26 13:04:44;;;;;;;6.32;5.03;;;;;;;;;;5054608;28;20021;-59
2021/08/26 13:07:23;;;;;;;5.45;4.22;;;;;;;;;;5055869;28;20025;-59
2021/08/26 13:09:56;;;;;;;6.43;3.58;;;;;;;;;;5055675;28;20398;-59
2021/08/26 13:12:22;;;;;;;5.60;3.97;;;;;;;;;;5055853;28;20113;-59
2021/08/26 13:14:49;;;;;;;7.63;4.88;;;;;;;;;;5055694;28;20034;-59
2021/08/26 13:17:16;;;;;;;5.50;4.32;;;;;;;;;;5054113;28;20032;-59
2021/08/26 13:19:43;;;;;;;6.82;5.47;;;;;;;;;;5055231;28;20340;-59
2021/08/26 13:22:29;;;;;;;8.82;4.32;;;;;;;;;;5055865;28;20531;-59
2021/08/26 13:24:57;;;;;;;6.55;4.93;;;;;;;;;;5051480;28;20036;-59
2021/08/26 13:27:23;;;;;;;8.27;4.88;;;;;;;;;;5038559;28;20420;-58
2021/08/26 13:29:52;;;;;;;7.22;3.90;;;;;;;;;;5055109;28;20063;-59
2021/08/26 13:36:06;;;;;;;7.45;5.13;;;;;;;;;;5028871;28;20365;-60
2021/08/26 13:38:40;;;;;;;7.10;4.80;;;;;;;;;;5033473;28;20021;-59
2021/08/26 13:41:06;;;;;;;6.13;4.10;;;;;;;;;;5033648;28;20045;-59
2021/08/26 13:43:32;;;;;;;7.45;5.43;;;;;;;;;;5033813;28;20059;-59
2021/08/26 13:47:03;;;;;;;8.38;5.00;;;;;;;;;;5040601;28;20033;-59
2021/08/26 13:49:13;;;;;;;8.07;3.72;;;;;;;;;;5035880;28;20025;-60
2021/08/26 13:51:46;;;;;;;5.28;4.47;;;;;;;;;;5055312;28;20067;-59
2021/08/26 13:54:15;;;;;;;6.18;4.35;;;;;;;;;;5055304;28;20029;-59
2021/08/26 13:56:41;;;;;;;5.00;3.70;;;;;;;;;;5054952;28;20055;-59
2021/08/26 13:59:08;;;;;;;7.25;3.88;;;;;;;;;;5054840;28;20032;-59
2021/08/26 14:01:38;;;;;;;5.05;4.30;;;;;;;;;;5055373;28;20364;-59
2021/08/26 14:04:23;;;;;;;5.67;4.47;;;;;;;;;;5054899;28;20023;-59
2021/08/26 14:06:50;;;;;;;7.82;5.00;;;;;;;;;;5053818;28;20032;-59
2021/08/26 14:09:16;;;;;;;5.82;4.03;;;;;;;;;;5054707;28;20025;-59
2021/08/26 14:11:42;;;;;;;4.57;4.10;;;;;;;;;;5055243;28;20063;-59
2021/08/26 14:14:11;;;;;;;5.10;3.95;;;;;;;;;;5054689;28;20098;-59
2021/08/26 14:16:37;;;;;;;8.55;4.43;;;;;;;;;;5054616;28;20040;-59
2021/08/26 14:22:17;;;;;;;6.28;4.50;;;;;;;;;;5054305;28;20445;-60
2021/08/26 14:24:43;;;;;;;5.65;4.15;;;;;;;;;;5052839;28;20028;-59
2021/08/26 14:27:13;;;;;;;4.82;3.72;;;;;;;;;;5054509;28;20021;-59
2021/08/26 14:36:12;;;;;;;5.85;4.35;;;;;;;;;;4977318;28;20046;-59
2021/08/26 14:38:41;;;;;;;5.97;4.40;;;;;;;;;;5048744;28;20025;-59
2021/08/26 14:41:10;;;;;;;7.97;4.68;;;;;;;;;;5053832;28;20064;-59
2021/08/26 14:46:34;;;;;;;6.60;4.18;;;;;;;;;;5044173;28;20025;-59
2021/08/26 14:49:03;;;;;;;5.75;3.90;;;;;;;;;;5054235;28;20025;-58
2021/08/26 14:51:47;;;;;;;4.93;3.35;;;;;;;;;;5052934;28;20501;-59
2021/08/26 14:54:13;;;;;;;5.18;3.65;;;;;;;;;;5054602;28;20074;-59
2021/08/26 14:56:40;;;;;;;4.88;3.65;;;;;;;;;;5054026;28;20021;-59
2021/08/26 14:59:06;;;;;;;4.85;3.58;;;;;;;;;;5053999;28;20401;-59
2021/08/26 15:02:01;;;;;;;;;;;;;;;;;;;;;
2021/08/26 15:04:27;;;;;;;6.90;3.72;;;;;;;;;;5055001;28;20027;-59
2021/08/26 15:06:54;;;;;;;4.97;3.50;;;;;;;;;;5053799;28;20071;-59
2021/08/26 15:09:20;;;;;;;4.20;3.17;;;;;;;;;;5052472;28;20378;-59